sensor_id;sensor_type;location;lat;lon;timestamp;pressure;altitude;pressure_sealevel;temperature;humidity
39823;BME280;25499;53.958;10.970;2022-12-20T06:51:38;101144.44;;;4.97;100.00
39823;BME280;25499;53.958;10.970;2022-12-20T06:54:03;101142.91;;;5.03;100.00
39823;BME280;25499;53.958;10.970;2022-12-20T06:56:28;101145.44;;;5.02;100.00
39823;BME280;25499;53.958;10.970;2022-12-20T06:58:54;101150.50;;;4.99;100.00
39823;BME280;25499;53.958;10.970;2022-12-20T07:01:19;101147.19;;;5.03;100.00
39823;BME280;25499;53.958;10.970;2022-12-20T07:03:44;101147.19;;;5.03;100.00
39823;BME280;25499;53.958;10.970;2022-12-20T07:06:10;101144.53;;;5.00;100.00
39823;BME280;25499;53.958;10.970;2022-12-20T07:08:35;101139.38;;;5.00;100.00
39823;BME280;25499;53.958;10.970;2022-12-20T07:11:04;101138.59;;;5.02;100.00
39823;BME280;25499;53.958;10.970;2022-12-20T07:13:30;101148.00;;;5.02;100.00
39823;BME280;25499;53.958;10.970;2022-12-20T07:15:58;101149.72;;;5.01;100.00
39823;BME280;25499;53.958;10.970;2022-12-20T07:18:25;101139.53;;;5.06;100.00
39823;BME280;25499;53.958;10.970;2022-12-20T07:20:50;101136.91;;;5.04;100.00
39823;BME280;25499;53.958;10.970;2022-12-20T07:23:16;101125.78;;;5.07;100.00
39823;BME280;25499;53.958;10.970;2022-12-20T07:25:42;101135.31;;;5.10;100.00
39823;BME280;25499;53.958;10.970;2022-12-20T07:28:08;101132.78;;;5.11;100.00
39823;BME280;25499;53.958;10.970;2022-12-20T07:30:33;101125.94;;;5.13;100.00
39823;BME280;25499;53.958;10.970;2022-12-20T07:32:58;101131.84;;;5.08;100.00
39823;BME280;25499;53.958;10.970;2022-12-20T07:35:24;101139.59;;;5.08;100.00
39823;BME280;25499;53.958;10.970;2022-12-20T07:37:50;101132.00;;;5.15;100.00
39823;BME280;25499;53.958;10.970;2022-12-20T07:40:16;101129.38;;;5.14;100.00
39823;BME280;25499;53.958;10.970;2022-12-20T07:42:41;101134.00;;;5.26;100.00
39823;BME280;25499;53.958;10.970;2022-12-20T07:45:06;101128.09;;;5.30;100.00
39823;BME280;25499;53.958;10.970;2022-12-20T07:47:32;101126.44;;;5.33;100.00
39823;BME280;25499;53.958;10.970;2022-12-20T07:50:00;101124.72;;;5.34;100.00
39823;BME280;25499;53.958;10.970;2022-12-20T07:52:25;101140.22;;;5.34;100.00
39823;BME280;25499;53.958;10.970;2022-12-20T07:54:54;101137.75;;;5.38;100.00
39823;BME280;25499;53.958;10.970;2022-12-20T07:57:28;101141.91;;;5.32;100.00
39823;BME280;25499;53.958;10.970;2022-12-20T07:59:55;101141.25;;;5.40;100.00
39823;BME280;25499;53.958;10.970;2022-12-20T08:02:25;101144.66;;;5.39;100.00
39823;BME280;25499;53.958;10.970;2022-12-20T08:04:52;101141.38;;;5.45;100.00
39823;BME280;25499;53.958;10.970;2022-12-20T08:07:19;101138.84;;;5.48;100.00
39823;BME280;25499;53.958;10.970;2022-12-20T08:09:44;101138.03;;;5.51;100.00
39823;BME280;25499;53.958;10.970;2022-12-20T08:12:11;101143.13;;;5.48;100.00
39823;BME280;25499;53.958;10.970;2022-12-20T08:14:38;101136.38;;;5.53;100.00
39823;BME280;25499;53.958;10.970;2022-12-20T08:17:03;101135.50;;;5.52;100.00
39823;BME280;25499;53.958;10.970;2022-12-20T08:19:28;101139.06;;;5.57;100.00
39823;BME280;25499;53.958;10.970;2022-12-20T08:21:54;101146.84;;;5.59;100.00
39823;BME280;25499;53.958;10.970;2022-12-20T08:24:19;101147.00;;;5.65;100.00
39823;BME280;25499;53.958;10.970;2022-12-20T08:26:44;101153.03;;;5.66;100.00
39823;BME280;25499;53.958;10.970;2022-12-20T08:29:10;101160.75;;;5.64;100.00
39823;BME280;25499;53.958;10.970;2022-12-20T08:31:39;101138.97;;;5.54;100.00
39823;BME280;25499;53.958;10.970;2022-12-20T08:34:06;101143.53;;;5.65;100.00
39823;BME280;25499;53.958;10.970;2022-12-20T08:36:31;101130.69;;;5.68;100.00
39823;BME280;25499;53.958;10.970;2022-12-20T08:38:57;101126.50;;;5.73;100.00
39823;BME280;25499;53.958;10.970;2022-12-20T08:41:22;101116.09;;;5.70;100.00
39823;BME280;25499;53.958;10.970;2022-12-20T08:43:47;101117.97;;;5.75;100.00
39823;BME280;25499;53.958;10.970;2022-12-20T08:46:13;101115.47;;;5.80;100.00
39823;BME280;25499;53.958;10.970;2022-12-20T08:48:39;101116.34;;;5.82;100.00
39823;BME280;25499;53.958;10.970;2022-12-20T08:51:08;101122.38;;;5.81;100.00
39823;BME280;25499;53.958;10.970;2022-12-20T08:53:34;101121.53;;;5.81;100.00
39823;BME280;25499;53.958;10.970;2022-12-20T08:58:28;101117.22;;;5.81;100.00
39823;BME280;25499;53.958;10.970;2022-12-20T09:00:53;101109.38;;;5.78;100.00
39823;BME280;25499;53.958;10.970;2022-12-20T09:03:22;101104.34;;;5.83;100.00
39823;BME280;25499;53.958;10.970;2022-12-20T09:05:47;101106.03;;;5.81;100.00
39823;BME280;25499;53.958;10.970;2022-12-20T09:08:13;101101.69;;;5.79;100.00
39823;BME280;25499;53.958;10.970;2022-12-20T09:10:39;101102.56;;;5.82;100.00
39823;BME280;25499;53.958;10.970;2022-12-20T09:13:04;101097.41;;;5.82;100.00
39823;BME280;25499;53.958;10.970;2022-12-20T09:15:29;101089.69;;;5.83;100.00
39823;BME280;25499;53.958;10.970;2022-12-20T09:17:55;101084.59;;;5.86;100.00
39823;BME280;25499;53.958;10.970;2022-12-20T09:20:21;101088.16;;;5.91;100.00
39823;BME280;25499;53.958;10.970;2022-12-20T09:22:46;101097.63;;;5.91;100.00
39823;BME280;25499;53.958;10.970;2022-12-20T09:25:11;101090.75;;;5.91;100.00
39823;BME280;25499;53.958;10.970;2022-12-20T09:27:36;101089.84;;;5.89;100.00
39823;BME280;25499;53.958;10.970;2022-12-20T09:30:02;101087.25;;;5.89;100.00
39823;BME280;25499;53.958;10.970;2022-12-20T09:32:27;101091.56;;;5.90;100.00
39823;BME280;25499;53.958;10.970;2022-12-20T09:34:53;101085.50;;;5.88;100.00
39823;BME280;25499;53.958;10.970;2022-12-20T09:37:18;101088.94;;;5.89;100.00
39823;BME280;25499;53.958;10.970;2022-12-20T09:39:43;101085.59;;;5.93;100.00
39823;BME280;25499;53.958;10.970;2022-12-20T09:42:08;101088.16;;;5.91;100.00
39823;BME280;25499;53.958;10.970;2022-12-20T09:44:35;101071.78;;;5.91;100.00
39823;BME280;25499;53.958;10.970;2022-12-20T09:47:03;101068.47;;;5.96;100.00
39823;BME280;25499;53.958;10.970;2022-12-20T09:49:30;101072.81;;;5.99;100.00
39823;BME280;25499;53.958;10.970;2022-12-20T10:00:16;101067.16;;;6.17;100.00
39823;BME280;25499;53.958;10.970;2022-12-20T10:02:42;101075.75;;;6.16;100.00
39823;BME280;25499;53.958;10.970;2022-12-20T10:05:11;101072.50;;;6.25;100.00
39823;BME280;25499;53.958;10.970;2022-12-20T10:07:39;101066.56;;;6.30;100.00
39823;BME280;25499;53.958;10.970;2022-12-20T10:15:32;101073.03;;;6.52;100.00
39823;BME280;25499;53.958;10.970;2022-12-20T10:18:16;101061.84;;;6.55;100.00
39823;BME280;25499;53.958;10.970;2022-12-20T10:26:31;101059.72;;;6.80;100.00
39823;BME280;25499;53.958;10.970;2022-12-20T10:28:57;101056.31;;;6.84;100.00
39823;BME280;25499;53.958;10.970;2022-12-20T10:31:22;101061.63;;;6.91;100.00
39823;BME280;25499;53.958;10.970;2022-12-20T10:33:47;101051.28;;;6.91;100.00
39823;BME280;25499;53.958;10.970;2022-12-20T10:36:20;101051.41;;;6.98;100.00
39823;BME280;25499;53.958;10.970;2022-12-20T10:38:47;101047.22;;;7.07;100.00
39823;BME280;25499;53.958;10.970;2022-12-20T10:41:14;101045.47;;;7.05;100.00
39823;BME280;25499;53.958;10.970;2022-12-20T10:43:44;101041.09;;;7.02;100.00
39823;BME280;25499;53.958;10.970;2022-12-20T10:46:10;101040.44;;;7.16;100.00
39823;BME280;25499;53.958;10.970;2022-12-20T10:48:38;101028.44;;;7.21;100.00
39823;BME280;25499;53.958;10.970;2022-12-20T10:53:37;101012.97;;;7.24;100.00
39823;BME280;25499;53.958;10.970;2022-12-20T10:56:46;101012.97;;;7.25;100.00
39823;BME280;25499;53.958;10.970;2022-12-20T11:01:39;101013.03;;;7.28;100.00
39823;BME280;25499;53.958;10.970;2022-12-20T11:06:52;100995.94;;;7.41;100.00
39823;BME280;25499;53.958;10.970;2022-12-20T11:09:22;101002.97;;;7.49;100.00
39823;BME280;25499;53.958;10.970;2022-12-20T11:12:02;100999.59;;;7.56;100.00
39823;BME280;25499;53.958;10.970;2022-12-20T11:14:28;100997.84;;;7.55;100.00
39823;BME280;25499;53.958;10.970;2022-12-20T11:16:54;100996.91;;;7.50;100.00
39823;BME280;25499;53.958;10.970;2022-12-20T11:19:36;101006.44;;;7.51;100.00
39823;BME280;25499;53.958;10.970;2022-12-20T11:22:11;100997.06;;;7.62;100.00
39823;BME280;25499;53.958;10.970;2022-12-20T11:33:28;100978.16;;;7.69;100.00
39823;BME280;25499;53.958;10.970;2022-12-20T11:51:58;100966.09;;;7.71;100.00
39823;BME280;25499;53.958;10.970;2022-12-20T11:54:40;100948.75;;;7.64;100.00
39823;BME280;25499;53.958;10.970;2022-12-20T11:57:12;100937.47;;;7.62;100.00
39823;BME280;25499;53.958;10.970;2022-12-20T11:59:52;100943.59;;;7.65;100.00
39823;BME280;25499;53.958;10.970;2022-12-20T12:04:49;100940.06;;;7.62;100.00
39823;BME280;25499;53.958;10.970;2022-12-20T12:07:18;100953.06;;;7.65;100.00
39823;BME280;25499;53.958;10.970;2022-12-20T12:12:24;100915.06;;;7.64;100.00
39823;BME280;25499;53.958;10.970;2022-12-20T12:15:09;100926.25;;;7.63;100.00
39823;BME280;25499;53.958;10.970;2022-12-20T12:22:56;100929.78;;;7.70;100.00
39823;BME280;25499;53.958;10.970;2022-12-20T12:25:25;100926.38;;;7.71;100.00
39823;BME280;25499;53.958;10.970;2022-12-20T12:27:50;100937.50;;;7.65;100.00
39823;BME280;25499;53.958;10.970;2022-12-20T12:30:16;100933.16;;;7.61;100.00
39823;BME280;25499;53.958;10.970;2022-12-20T12:32:50;100941.03;;;7.70;100.00
39823;BME280;25499;53.958;10.970;2022-12-20T12:43:34;100929.78;;;7.70;100.00
39823;BME280;25499;53.958;10.970;2022-12-20T12:46:12;100928.09;;;7.72;100.00
39823;BME280;25499;53.958;10.970;2022-12-20T12:49:00;100934.13;;;7.69;100.00
39823;BME280;25499;53.958;10.970;2022-12-20T12:51:36;100932.28;;;7.59;100.00
39823;BME280;25499;53.958;10.970;2022-12-20T12:54:11;100925.34;;;7.58;100.00
39823;BME280;25499;53.958;10.970;2022-12-20T12:56:40;100920.19;;;7.61;100.00
39823;BME280;25499;53.958;10.970;2022-12-20T12:59:08;100921.03;;;7.60;100.00
39823;BME280;25499;53.958;10.970;2022-12-20T13:01:53;100921.00;;;7.57;100.00
39823;BME280;25499;53.958;10.970;2022-12-20T13:09:35;100906.41;;;7.63;100.00
39823;BME280;25499;53.958;10.970;2022-12-20T13:12:00;100905.50;;;7.61;100.00
39823;BME280;25499;53.958;10.970;2022-12-20T13:14:46;100905.50;;;7.60;100.00
39823;BME280;25499;53.958;10.970;2022-12-20T13:19:37;100904.53;;;7.52;100.00
39823;BME280;25499;53.958;10.970;2022-12-20T13:24:35;100900.97;;;7.42;100.00
39823;BME280;25499;53.958;10.970;2022-12-20T13:27:02;100900.06;;;7.40;100.00
39823;BME280;25499;53.958;10.970;2022-12-20T13:29:34;100902.63;;;7.35;100.00
39823;BME280;25499;53.958;10.970;2022-12-20T13:32:00;100893.06;;;7.31;100.00
39823;BME280;25499;53.958;10.970;2022-12-20T13:34:42;100890.47;;;7.31;100.00
39823;BME280;25499;53.958;10.970;2022-12-20T13:37:51;100882.66;;;7.28;100.00
39823;BME280;25499;53.958;10.970;2022-12-20T13:40:16;100869.75;;;7.31;100.00
39823;BME280;25499;53.958;10.970;2022-12-20T13:42:43;100881.75;;;7.24;100.00
39823;BME280;25499;53.958;10.970;2022-12-20T13:45:10;100880.84;;;7.21;100.00
39823;BME280;25499;53.958;10.970;2022-12-20T13:48:21;100883.78;;;7.49;100.00
39823;BME280;25499;53.958;10.970;2022-12-20T13:50:51;100875.94;;;7.42;100.00
39823;BME280;25499;53.958;10.970;2022-12-20T13:53:26;100891.44;;;7.39;100.00
39823;BME280;25499;53.958;10.970;2022-12-20T13:55:53;100868.09;;;7.38;100.00
39823;BME280;25499;53.958;10.970;2022-12-20T13:58:22;100880.06;;;7.28;100.00
39823;BME280;25499;53.958;10.970;2022-12-20T14:00:49;100868.03;;;7.30;100.00
39823;BME280;25499;53.958;10.970;2022-12-20T14:03:21;100873.22;;;7.30;100.00
39823;BME280;25499;53.958;10.970;2022-12-20T14:05:48;100873.16;;;7.25;100.00
39823;BME280;25499;53.958;10.970;2022-12-20T14:08:20;100873.16;;;7.27;100.00
39823;BME280;25499;53.958;10.970;2022-12-20T14:10:47;100879.22;;;7.27;100.00
39823;BME280;25499;53.958;10.970;2022-12-20T14:13:24;100877.50;;;7.26;100.00
39823;BME280;25499;53.958;10.970;2022-12-20T14:15:50;100874.84;;;7.22;100.00
39823;BME280;25499;53.958;10.970;2022-12-20T14:18:21;100879.13;;;7.23;100.00
39823;BME280;25499;53.958;10.970;2022-12-20T14:20:57;100890.44;;;7.26;100.00
39823;BME280;25499;53.958;10.970;2022-12-20T14:26:01;100900.84;;;7.31;100.00
39823;BME280;25499;53.958;10.970;2022-12-20T14:31:03;100896.41;;;7.22;100.00
39823;BME280;25499;53.958;10.970;2022-12-20T14:33:34;100893.03;;;7.26;100.00
39823;BME280;25499;53.958;10.970;2022-12-20T14:38:46;100880.06;;;7.28;100.00
39823;BME280;25499;53.958;10.970;2022-12-20T14:41:44;100886.06;;;7.24;100.00
39823;BME280;25499;53.958;10.970;2022-12-20T14:44:16;100883.50;;;7.25;100.00
39823;BME280;25499;53.958;10.970;2022-12-20T14:46:52;100874.91;;;7.29;100.00
39823;BME280;25499;53.958;10.970;2022-12-20T14:51:48;100878.25;;;7.21;100.00
39823;BME280;25499;53.958;10.970;2022-12-20T14:54:22;100875.66;;;7.21;100.00
39823;BME280;25499;53.958;10.970;2022-12-20T14:56:50;100873.94;;;7.20;100.00
39823;BME280;25499;53.958;10.970;2022-12-20T14:59:22;100883.47;;;7.24;100.00
39823;BME280;25499;53.958;10.970;2022-12-20T15:01:52;100870.50;;;7.22;100.00
39823;BME280;25499;53.958;10.970;2022-12-20T15:04:38;100872.13;;;7.14;100.00
39823;BME280;25499;53.958;10.970;2022-12-20T15:07:04;100869.59;;;7.19;100.00
39823;BME280;25499;53.958;10.970;2022-12-20T15:09:49;100866.19;;;7.20;100.00
39823;BME280;25499;53.958;10.970;2022-12-20T15:12:15;100862.69;;;7.18;100.00
39823;BME280;25499;53.958;10.970;2022-12-20T15:14:41;100847.94;;;7.12;100.00
39823;BME280;25499;53.958;10.970;2022-12-20T15:17:11;100844.50;;;7.12;100.00
39823;BME280;25499;53.958;10.970;2022-12-20T15:19:38;100851.41;;;7.13;100.00
39823;BME280;25499;53.958;10.970;2022-12-20T15:22:04;100834.97;;;7.10;100.00
39823;BME280;25499;53.958;10.970;2022-12-20T15:24:31;100839.31;;;7.10;100.00
39823;BME280;25499;53.958;10.970;2022-12-20T15:26:56;100834.09;;;7.08;100.00
39823;BME280;25499;53.958;10.970;2022-12-20T15:29:24;100841.88;;;7.10;100.00
39823;BME280;25499;53.958;10.970;2022-12-20T15:32:03;100847.03;;;7.07;100.00
39823;BME280;25499;53.958;10.970;2022-12-20T15:34:33;100844.38;;;7.02;100.00
39823;BME280;25499;53.958;10.970;2022-12-20T15:36:59;100836.59;;;6.99;100.00
39823;BME280;25499;53.958;10.970;2022-12-20T15:39:27;100844.34;;;7.01;100.00
39823;BME280;25499;53.958;10.970;2022-12-20T15:41:53;100847.72;;;6.95;100.00
39823;BME280;25499;53.958;10.970;2022-12-20T15:44:25;100844.34;;;6.99;100.00
39823;BME280;25499;53.958;10.970;2022-12-20T15:46:51;100839.19;;;6.99;100.00
39823;BME280;25499;53.958;10.970;2022-12-20T15:49:23;100842.66;;;7.03;100.00
39823;BME280;25499;53.958;10.970;2022-12-20T15:51:50;100845.28;;;7.04;100.00
39823;BME280;25499;53.958;10.970;2022-12-20T15:54:29;100839.16;;;7.01;100.00
39823;BME280;25499;53.958;10.970;2022-12-20T15:56:57;100830.59;;;7.03;100.00
39823;BME280;25499;53.958;10.970;2022-12-20T15:59:23;100831.50;;;7.08;100.00
39823;BME280;25499;53.958;10.970;2022-12-20T16:01:48;100821.13;;;7.07;100.00
39823;BME280;25499;53.958;10.970;2022-12-20T16:04:19;100833.13;;;7.00;100.00
39823;BME280;25499;53.958;10.970;2022-12-20T16:06:47;100836.66;;;7.05;100.00
39823;BME280;25499;53.958;10.970;2022-12-20T16:09:14;100834.94;;;7.07;100.00
39823;BME280;25499;53.958;10.970;2022-12-20T16:11:39;100833.28;;;7.14;100.00
39823;BME280;25499;53.958;10.970;2022-12-20T16:14:05;100832.34;;;7.07;100.00
39823;BME280;25499;53.958;10.970;2022-12-20T16:16:33;100822.91;;;7.13;100.00
39823;BME280;25499;53.958;10.970;2022-12-20T16:19:00;100827.25;;;7.12;100.00
39823;BME280;25499;53.958;10.970;2022-12-20T16:21:29;100838.44;;;7.13;100.00
39823;BME280;25499;53.958;10.970;2022-12-20T16:23:56;100831.69;;;7.22;100.00
39823;BME280;25499;53.958;10.970;2022-12-20T16:26:22;100820.44;;;7.20;100.00
39823;BME280;25499;53.958;10.970;2022-12-20T16:28:50;100823.09;;;7.28;100.00
39823;BME280;25499;53.958;10.970;2022-12-20T16:33:47;100821.38;;;7.27;100.00
39823;BME280;25499;53.958;10.970;2022-12-20T16:36:13;100823.16;;;7.33;100.00
39823;BME280;25499;53.958;10.970;2022-12-20T16:38:39;100827.47;;;7.31;100.00
39823;BME280;25499;53.958;10.970;2022-12-20T16:41:31;100835.16;;;7.26;100.00
39823;BME280;25499;53.958;10.970;2022-12-20T16:43:59;100840.38;;;7.29;100.00
39823;BME280;25499;53.958;10.970;2022-12-20T16:46:26;100836.09;;;7.33;100.00
39823;BME280;25499;53.958;10.970;2022-12-20T16:48:53;100832.63;;;7.31;100.00
39823;BME280;25499;53.958;10.970;2022-12-20T16:51:33;100830.91;;;7.31;100.00
39823;BME280;25499;53.958;10.970;2022-12-20T16:54:03;100831.00;;;7.39;100.00
39823;BME280;25499;53.958;10.970;2022-12-20T16:56:29;100828.38;;;7.36;100.00
39823;BME280;25499;53.958;10.970;2022-12-20T16:58:55;100823.97;;;7.27;100.00
39823;BME280;25499;53.958;10.970;2022-12-20T17:01:42;100828.28;;;7.28;100.00
39823;BME280;25499;53.958;10.970;2022-12-20T17:04:13;100830.78;;;7.20;100.00
39823;BME280;25499;53.958;10.970;2022-12-20T17:06:40;100823.22;;;7.37;100.00
39823;BME280;25499;53.958;10.970;2022-12-20T17:09:06;100825.75;;;7.33;100.00
39823;BME280;25499;53.958;10.970;2022-12-20T17:11:31;100830.13;;;7.37;100.00
39823;BME280;25499;53.958;10.970;2022-12-20T17:13:58;100820.53;;;7.26;100.00
39823;BME280;25499;53.958;10.970;2022-12-20T17:16:24;100819.78;;;7.41;100.00
39823;BME280;25499;53.958;10.970;2022-12-20T17:18:53;100822.38;;;7.38;100.00
39823;BME280;25499;53.958;10.970;2022-12-20T17:23:46;100817.19;;;7.38;100.00
39823;BME280;25499;53.958;10.970;2022-12-20T17:26:13;100823.25;;;7.39;100.00
39823;BME280;25499;53.958;10.970;2022-12-20T17:28:39;100824.97;;;7.41;100.00
39823;BME280;25499;53.958;10.970;2022-12-20T17:33:45;100823.31;;;7.43;100.00
39823;BME280;25499;53.958;10.970;2022-12-20T17:36:11;100822.41;;;7.43;100.00
39823;BME280;25499;53.958;10.970;2022-12-20T17:38:36;100821.59;;;7.47;100.00
39823;BME280;25499;53.958;10.970;2022-12-20T17:41:01;100816.44;;;7.47;100.00
39823;BME280;25499;53.958;10.970;2022-12-20T17:43:27;100817.31;;;7.51;100.00
39823;BME280;25499;53.958;10.970;2022-12-20T17:45:53;100815.53;;;7.46;100.00
39823;BME280;25499;53.958;10.970;2022-12-20T17:48:18;100805.16;;;7.46;100.00
39823;BME280;25499;53.958;10.970;2022-12-20T17:50:44;100811.22;;;7.45;100.00
39823;BME280;25499;53.958;10.970;2022-12-20T17:53:10;100806.09;;;7.52;100.00
39823;BME280;25499;53.958;10.970;2022-12-20T17:55:35;100801.78;;;7.51;100.00
39823;BME280;25499;53.958;10.970;2022-12-20T17:58:01;100804.44;;;7.55;100.00
39823;BME280;25499;53.958;10.970;2022-12-20T18:00:31;100810.47;;;7.57;100.00
39823;BME280;25499;53.958;10.970;2022-12-20T18:02:56;100801.84;;;7.60;100.00
39823;BME280;25499;53.958;10.970;2022-12-20T18:05:23;100794.16;;;7.66;100.00
39823;BME280;25499;53.958;10.970;2022-12-20T18:07:52;100802.84;;;7.71;100.00
39823;BME280;25499;53.958;10.970;2022-12-20T18:10:22;100795.13;;;7.80;100.00
39823;BME280;25499;53.958;10.970;2022-12-20T18:12:48;100801.19;;;7.79;100.00
39823;BME280;25499;53.958;10.970;2022-12-20T18:15:13;100797.75;;;7.82;100.00
39823;BME280;25499;53.958;10.970;2022-12-20T18:17:39;100795.97;;;7.75;100.00
39823;BME280;25499;53.958;10.970;2022-12-20T18:20:07;100805.50;;;7.80;100.00
39823;BME280;25499;53.958;10.970;2022-12-20T18:22:33;100805.50;;;7.80;100.00
39823;BME280;25499;53.958;10.970;2022-12-20T18:24:59;100807.31;;;7.86;100.00
39823;BME280;25499;53.958;10.970;2022-12-20T18:27:28;100799.50;;;7.84;100.00
39823;BME280;25499;53.958;10.970;2022-12-20T18:29:54;100807.41;;;7.98;100.00
39823;BME280;25499;53.958;10.970;2022-12-20T18:32:20;100804.75;;;7.92;100.00
39823;BME280;25499;53.958;10.970;2022-12-20T18:34:46;100802.22;;;7.98;100.00
39823;BME280;25499;53.958;10.970;2022-12-20T18:37:12;100804.84;;;8.03;100.00
39823;BME280;25499;53.958;10.970;2022-12-20T18:39:39;100797.88;;;7.99;100.00
39823;BME280;25499;53.958;10.970;2022-12-20T18:42:04;100792.75;;;8.03;100.00
39823;BME280;25499;53.958;10.970;2022-12-20T18:44:29;100798.81;;;8.06;100.00
39823;BME280;25499;53.958;10.970;2022-12-20T18:46:59;100806.56;;;7.99;100.00
39823;BME280;25499;53.958;10.970;2022-12-20T18:49:25;100814.34;;;8.02;100.00
39823;BME280;25499;53.958;10.970;2022-12-20T18:51:51;100803.97;;;8.04;100.00
39823;BME280;25499;53.958;10.970;2022-12-20T18:54:17;100807.44;;;8.01;100.00
39823;BME280;25499;53.958;10.970;2022-12-20T18:56:42;100804.88;;;8.08;100.00
39823;BME280;25499;53.958;10.970;2022-12-20T18:59:07;100800.56;;;8.08;100.00
39823;BME280;25499;53.958;10.970;2022-12-20T19:01:34;100807.47;;;8.05;100.00
39823;BME280;25499;53.958;10.970;2022-12-20T19:04:01;100804.81;;;8.00;100.00
39823;BME280;25499;53.958;10.970;2022-12-20T19:06:27;100816.97;;;8.07;100.00
39823;BME280;25499;53.958;10.970;2022-12-20T19:08:53;100811.75;;;8.04;100.00
39823;BME280;25499;53.958;10.970;2022-12-20T19:11:21;100820.41;;;8.01;100.00
39823;BME280;25499;53.958;10.970;2022-12-20T19:13:48;100821.31;;;8.08;100.00
39823;BME280;25499;53.958;10.970;2022-12-20T19:16:17;100815.22;;;8.06;100.00
39823;BME280;25499;53.958;10.970;2022-12-20T19:18:43;100812.66;;;8.05;100.00
39823;BME280;25499;53.958;10.970;2022-12-20T19:21:22;100807.47;;;8.05;100.00
39823;BME280;25499;53.958;10.970;2022-12-20T19:23:54;100812.72;;;8.15;100.00
39823;BME280;25499;53.958;10.970;2022-12-20T19:26:22;100823.97;;;8.17;100.00
39823;BME280;25499;53.958;10.970;2022-12-20T19:28:48;100825.72;;;8.18;100.00
39823;BME280;25499;53.958;10.970;2022-12-20T19:31:19;100817.00;;;8.10;100.00
39823;BME280;25499;53.958;10.970;2022-12-20T19:33:48;100815.25;;;8.11;100.00
39823;BME280;25499;53.958;10.970;2022-12-20T19:36:38;100816.22;;;8.22;100.00
39823;BME280;25499;53.958;10.970;2022-12-20T19:39:07;100818.72;;;8.13;100.00
39823;BME280;25499;53.958;10.970;2022-12-20T19:41:35;100818.72;;;8.08;100.00
39823;BME280;25499;53.958;10.970;2022-12-20T19:44:01;100815.31;;;8.15;100.00
39823;BME280;25499;53.958;10.970;2022-12-20T19:46:27;100817.09;;;8.22;100.00
39823;BME280;25499;53.958;10.970;2022-12-20T19:48:53;100812.78;;;8.25;100.00
39823;BME280;25499;53.958;10.970;2022-12-20T19:51:19;100808.38;;;8.11;100.00
39823;BME280;25499;53.958;10.970;2022-12-20T19:53:46;100814.47;;;8.21;100.00
39823;BME280;25499;53.958;10.970;2022-12-20T19:56:13;100800.66;;;8.22;100.00
39823;BME280;25499;53.958;10.970;2022-12-20T19:58:41;100798.94;;;8.22;100.00
39823;BME280;25499;53.958;10.970;2022-12-20T20:01:08;100801.44;;;8.10;100.00
39823;BME280;25499;53.958;10.970;2022-12-20T20:03:37;100791.13;;;8.19;100.00
39823;BME280;25499;53.958;10.970;2022-12-20T20:06:04;100803.22;;;8.17;100.00
39823;BME280;25499;53.958;10.970;2022-12-20T20:08:31;100805.78;;;8.14;100.00
39823;BME280;25499;53.958;10.970;2022-12-20T20:10:57;100806.72;;;8.24;100.00
39823;BME280;25499;53.958;10.970;2022-12-20T20:13:24;100801.53;;;8.22;100.00
39823;BME280;25499;53.958;10.970;2022-12-20T20:15:56;100798.97;;;8.26;100.00
39823;BME280;25499;53.958;10.970;2022-12-20T20:18:22;100797.22;;;8.26;100.00
39823;BME280;25499;53.958;10.970;2022-12-20T20:20:48;100806.69;;;8.19;100.00
39823;BME280;25499;53.958;10.970;2022-12-20T20:23:14;100802.34;;;8.15;100.00
39823;BME280;25499;53.958;10.970;2022-12-20T20:25:47;100804.09;;;8.21;100.00
39823;BME280;25499;53.958;10.970;2022-12-20T20:28:13;100796.31;;;8.19;100.00
39823;BME280;25499;53.958;10.970;2022-12-20T20:30:40;100804.94;;;8.14;100.00
39823;BME280;25499;53.958;10.970;2022-12-20T20:33:06;100808.38;;;8.14;100.00
39823;BME280;25499;53.958;10.970;2022-12-20T20:35:32;100811.00;;;8.17;100.00
39823;BME280;25499;53.958;10.970;2022-12-20T20:37:57;100810.13;;;8.15;100.00
39823;BME280;25499;53.958;10.970;2022-12-20T20:40:23;100814.47;;;8.15;100.00
39823;BME280;25499;53.958;10.970;2022-12-20T20:42:48;100809.22;;;8.09;100.00
39823;BME280;25499;53.958;10.970;2022-12-20T20:45:14;100803.16;;;8.08;100.00
39823;BME280;25499;53.958;10.970;2022-12-20T20:47:40;100799.66;;;8.06;100.00
39823;BME280;25499;53.958;10.970;2022-12-20T20:50:08;100802.34;;;8.14;100.00
39823;BME280;25499;53.958;10.970;2022-12-20T20:52:33;100804.03;;;8.10;100.00
39823;BME280;25499;53.958;10.970;2022-12-20T20:54:58;100800.56;;;8.08;100.00
39823;BME280;25499;53.958;10.970;2022-12-20T20:57:24;100806.63;;;8.10;100.00
39823;BME280;25499;53.958;10.970;2022-12-20T20:59:49;100807.47;;;8.09;100.00
39823;BME280;25499;53.958;10.970;2022-12-20T21:02:15;100806.56;;;8.04;100.00
39823;BME280;25499;53.958;10.970;2022-12-20T21:04:40;100809.16;;;8.04;100.00
